createdAt,value
2023-03-26T00:00:01.785Z,128.32
2023-03-26T00:01:01.799Z,129.95
2023-03-26T00:02:01.831Z,130.52
2023-03-26T00:03:01.911Z,127.81
2023-03-26T00:04:01.871Z,127.51
2023-03-26T00:05:01.886Z,126.36
2023-03-26T00:06:01.926Z,129.86
2023-03-26T00:07:01.921Z,129.61
2023-03-26T00:08:01.950Z,130.54
2023-03-26T00:09:01.960Z,129.13
2023-03-26T00:10:02.034Z,128.38
2023-03-26T00:11:02.588Z,130.50
2023-03-26T00:12:02.031Z,129.76
2023-03-26T00:13:02.042Z,130.78
2023-03-26T00:14:02.078Z,130.02
2023-03-26T00:15:02.106Z,127.09
2023-03-26T00:16:02.121Z,126.92
2023-03-26T00:17:03.073Z,128.57
2023-03-26T00:19:02.186Z,128.40
2023-03-26T00:20:02.224Z,129.78
2023-03-26T00:21:02.225Z,128.37
2023-03-26T00:22:02.254Z,130.12
2023-03-26T00:23:02.265Z,132.47
2023-03-26T00:24:02.275Z,131.26
2023-03-26T00:25:02.310Z,131.82
2023-03-26T00:26:02.321Z,131.82
2023-03-26T00:27:02.345Z,132.03
2023-03-26T00:28:02.374Z,132.12
2023-03-26T00:29:03.162Z,134.98
2023-03-26T00:31:02.500Z,132.01
2023-03-26T00:32:02.456Z,132.16
2023-03-26T00:33:02.519Z,128.34
2023-03-26T00:34:02.498Z,123.72
2023-03-26T00:35:02.542Z,124.90
2023-03-26T00:36:04.429Z,126.67
2023-03-26T00:37:02.564Z,128.25
2023-03-26T00:38:02.574Z,126.36
2023-03-26T00:39:02.597Z,128.73
2023-03-26T00:40:02.638Z,127.23
2023-03-26T00:41:02.720Z,127.43
2023-03-26T00:43:02.705Z,127.27
2023-03-26T00:44:03.599Z,127.18
2023-03-26T00:45:02.742Z,123.61
2023-03-26T00:46:02.775Z,122.69
2023-03-26T00:47:02.783Z,123.56
2023-03-26T00:48:02.898Z,124.96
2023-03-26T00:49:02.825Z,126.81
2023-03-26T00:50:02.853Z,129.35
2023-03-26T00:51:02.986Z,127.83
2023-03-26T00:52:03.593Z,129.15
2023-03-26T00:53:02.904Z,131.38
2023-03-26T00:54:02.928Z,132.44
2023-03-26T00:55:02.948Z,131.41
2023-03-26T00:56:02.980Z,129.84
2023-03-26T00:57:03.028Z,129.58
2023-03-26T00:58:03.011Z,129.20
2023-03-26T00:59:03.020Z,130.85
2023-03-26T01:00:03.596Z,129.64
2023-03-26T01:01:03.124Z,129.43
2023-03-26T01:02:03.303Z,130.25
2023-03-26T01:03:03.204Z,131.26
2023-03-26T01:04:08.285Z,128.92
2023-03-26T01:05:04.146Z,129.09
2023-03-26T01:07:03.608Z,129.57
2023-03-26T01:08:03.159Z,130.40
2023-03-26T01:09:03.084Z,127.94
2023-03-26T01:10:03.079Z,130.76
2023-03-26T01:11:03.101Z,133.16
2023-03-26T01:12:03.081Z,132.77
2023-03-26T01:13:03.071Z,131.97
2023-03-26T01:15:03.100Z,128.35
2023-03-26T01:16:03.058Z,131.78
2023-03-26T01:17:03.024Z,131.07
2023-03-26T01:18:03.644Z,130.97
2023-03-26T01:19:03.011Z,132.09
2023-03-26T01:20:03.522Z,131.85
2023-03-26T01:21:03.075Z,127.57
2023-03-26T01:23:03.609Z,124.88
2023-03-26T01:24:02.983Z,127.57
2023-03-26T01:25:02.984Z,127.97
2023-03-26T01:26:03.523Z,124.35
2023-03-26T01:27:03.026Z,125.64
2023-03-26T01:28:03.045Z,125.03
2023-03-26T01:29:03.057Z,126.81
2023-03-26T01:30:03.089Z,127.77
2023-03-26T01:31:03.105Z,126.09
2023-03-26T01:32:03.135Z,127.48
2023-03-26T01:33:04.180Z,127.24
2023-03-26T01:34:03.169Z,126.02
2023-03-26T01:35:03.202Z,127.99
2023-03-26T01:36:03.240Z,128.27
2023-03-26T01:37:03.226Z,128.50
2023-03-26T01:38:03.245Z,129.60
2023-03-26T01:39:03.283Z,130.28
2023-03-26T01:40:03.290Z,126.27
2023-03-26T01:41:03.308Z,125.39
2023-03-26T01:42:03.448Z,120.77
2023-03-26T01:43:03.413Z,118.30
2023-03-26T01:44:03.422Z,122.32
2023-03-26T01:45:03.494Z,120.20
2023-03-26T01:46:03.481Z,119.26
2023-03-26T01:47:03.470Z,121.72
2023-03-26T01:48:03.540Z,120.21
2023-03-26T01:49:03.468Z,120.08
2023-03-26T01:50:03.495Z,120.51
2023-03-26T01:51:03.508Z,125.14
2023-03-26T01:52:03.529Z,125.68
2023-03-26T01:53:03.558Z,125.08
2023-03-26T01:54:03.576Z,126.65
2023-03-26T01:55:03.600Z,125.48
2023-03-26T01:56:03.623Z,126.67
2023-03-26T01:57:03.697Z,127.53
2023-03-26T01:58:03.660Z,126.21
2023-03-26T01:59:03.670Z,128.92
2023-03-26T02:00:03.692Z,126.09
2023-03-26T02:01:03.728Z,126.87
2023-03-26T02:02:03.807Z,127.83
2023-03-26T02:03:03.864Z,128.46
2023-03-26T02:04:03.832Z,129.52
2023-03-26T02:05:03.826Z,128.28
2023-03-26T02:06:03.828Z,129.49
2023-03-26T02:07:03.869Z,131.16
2023-03-26T02:08:03.865Z,129.49
2023-03-26T02:09:03.886Z,135.31
2023-03-26T02:10:03.904Z,129.66
2023-03-26T02:11:03.931Z,130.33
2023-03-26T02:12:03.943Z,131.29
2023-03-26T02:13:03.969Z,132.47
2023-03-26T02:14:03.980Z,130.20
2023-03-26T02:15:04.000Z,129.31
2023-03-26T02:16:04.060Z,129.23
2023-03-26T02:17:04.054Z,127.67
2023-03-26T02:18:04.175Z,128.86
2023-03-26T02:19:04.097Z,131.32
2023-03-26T02:20:04.118Z,127.82
2023-03-26T02:21:04.131Z,127.39
2023-03-26T02:22:04.156Z,128.48
2023-03-26T02:23:04.199Z,133.00
2023-03-26T02:24:04.394Z,129.30
2023-03-26T02:25:04.274Z,131.22
2023-03-26T02:26:04.238Z,131.84
2023-03-26T02:27:04.260Z,130.95
2023-03-26T02:28:04.272Z,130.48
2023-03-26T02:29:04.294Z,130.95
2023-03-26T02:30:04.317Z,130.28
2023-03-26T02:31:04.341Z,130.77
2023-03-26T02:32:04.413Z,130.53
2023-03-26T02:33:04.421Z,132.54
2023-03-26T02:34:04.424Z,130.96
2023-03-26T02:35:04.408Z,127.05
2023-03-26T02:36:04.495Z,129.90
2023-03-26T02:37:04.451Z,127.03
2023-03-26T02:38:04.477Z,128.22
2023-03-26T02:39:04.536Z,128.75
2023-03-26T02:40:04.514Z,130.57
2023-03-26T02:41:04.526Z,129.24
2023-03-26T02:42:04.546Z,132.18
2023-03-26T02:43:04.574Z,130.11
2023-03-26T02:44:04.587Z,129.26
2023-03-26T02:45:04.608Z,132.25
2023-03-26T02:46:04.654Z,130.58
2023-03-26T02:47:05.633Z,129.06
2023-03-26T02:48:04.707Z,131.11
2023-03-26T02:49:04.691Z,129.18
2023-03-26T02:50:04.701Z,129.90
2023-03-26T02:51:04.731Z,127.49
2023-03-26T02:52:04.751Z,126.73
2023-03-26T02:53:04.786Z,131.91
2023-03-26T02:54:04.793Z,127.90
2023-03-26T02:55:04.883Z,127.78
2023-03-26T02:56:04.826Z,128.16
2023-03-26T02:57:04.895Z,127.38
2023-03-26T02:58:04.873Z,124.71
2023-03-26T02:59:04.899Z,124.73
2023-03-26T03:00:04.936Z,124.53
2023-03-26T03:01:04.979Z,127.55
2023-03-26T03:02:04.950Z,127.96
2023-03-26T03:03:05.039Z,127.50
2023-03-26T03:04:04.981Z,129.29
2023-03-26T03:05:05.101Z,128.45
2023-03-26T03:07:05.062Z,127.67
2023-03-26T03:08:05.080Z,127.36
2023-03-26T03:09:05.102Z,128.34
2023-03-26T03:10:05.114Z,126.32
2023-03-26T03:11:05.123Z,126.24
2023-03-26T03:12:05.148Z,126.55
2023-03-26T03:13:05.186Z,128.22
2023-03-26T03:14:05.197Z,127.82
2023-03-26T03:15:05.231Z,127.04
2023-03-26T03:16:05.240Z,127.99
2023-03-26T03:17:05.285Z,127.52
2023-03-26T03:18:05.367Z,125.33
2023-03-26T03:19:05.303Z,121.95
2023-03-26T03:20:05.337Z,123.79
2023-03-26T03:21:05.403Z,123.38
2023-03-26T03:23:05.406Z,123.84
2023-03-26T03:24:05.411Z,127.41
2023-03-26T03:25:05.424Z,124.27
2023-03-26T03:26:05.446Z,125.90
2023-03-26T03:27:05.467Z,127.07
2023-03-26T03:28:05.490Z,126.08
2023-03-26T03:29:05.542Z,125.11
2023-03-26T03:31:05.678Z,128.83
2023-03-26T03:32:05.576Z,126.80
2023-03-26T03:33:05.661Z,128.32
2023-03-26T03:35:05.640Z,128.04
2023-03-26T03:36:05.696Z,127.21
2023-03-26T03:37:05.674Z,128.70
2023-03-26T03:38:05.691Z,126.82
2023-03-26T03:39:05.713Z,127.30
2023-03-26T03:40:06.727Z,128.24
2023-03-26T03:41:05.786Z,125.45
2023-03-26T03:43:05.798Z,125.14
2023-03-26T03:44:05.835Z,125.54
2023-03-26T03:45:05.860Z,122.78
2023-03-26T03:46:05.865Z,122.83
2023-03-26T03:47:05.878Z,122.57
2023-03-26T03:48:05.932Z,122.51
2023-03-26T03:49:06.002Z,123.23
2023-03-26T03:51:05.963Z,120.28
2023-03-26T03:52:05.981Z,118.61
2023-03-26T03:53:06.000Z,117.97
2023-03-26T03:54:06.030Z,118.38
2023-03-26T03:55:06.049Z,118.69
2023-03-26T03:56:06.054Z,121.00
2023-03-26T03:57:06.121Z,122.25
2023-03-26T03:58:06.096Z,121.35
2023-03-26T03:59:06.134Z,120.14
2023-03-26T04:00:06.979Z,122.29
2023-03-26T04:01:06.170Z,120.74
2023-03-26T04:02:06.208Z,121.76
2023-03-26T04:03:06.341Z,123.75
2023-03-26T04:04:06.372Z,122.11
2023-03-26T04:05:06.230Z,120.19
2023-03-26T04:06:06.254Z,121.58
2023-03-26T04:07:06.280Z,122.43
2023-03-26T04:08:06.299Z,121.19
2023-03-26T04:09:06.306Z,122.64
2023-03-26T04:10:06.330Z,120.77
2023-03-26T04:11:06.353Z,123.75
2023-03-26T04:12:06.374Z,123.61
2023-03-26T04:13:06.494Z,122.70
2023-03-26T04:15:06.441Z,124.30
2023-03-26T04:16:06.469Z,123.36
2023-03-26T04:17:06.463Z,121.91
2023-03-26T04:18:06.545Z,123.46
2023-03-26T04:19:06.508Z,125.70
2023-03-26T04:20:06.540Z,121.78
2023-03-26T04:21:06.616Z,124.00
2023-03-26T04:23:06.587Z,120.87
2023-03-26T04:24:06.681Z,117.58
2023-03-26T04:25:06.627Z,118.44
2023-03-26T04:26:06.714Z,117.46
2023-03-26T04:27:06.676Z,118.55
2023-03-26T04:28:06.792Z,119.09
2023-03-26T04:29:06.704Z,118.89
2023-03-26T04:30:06.723Z,118.68
2023-03-26T04:31:06.772Z,115.05
2023-03-26T04:32:06.808Z,117.86
2023-03-26T04:33:06.813Z,117.04
2023-03-26T04:34:06.801Z,117.89
2023-03-26T04:35:06.827Z,116.43
2023-03-26T04:36:06.909Z,115.18
2023-03-26T04:37:06.855Z,115.85
2023-03-26T04:38:06.873Z,114.47
2023-03-26T04:39:06.940Z,117.23
2023-03-26T04:40:06.930Z,117.69
2023-03-26T04:41:06.943Z,118.13
2023-03-26T04:42:07.023Z,117.82
2023-03-26T04:43:07.009Z,118.68
2023-03-26T04:44:07.080Z,120.04
2023-03-26T04:45:07.029Z,118.58
2023-03-26T04:46:07.047Z,119.39
2023-03-26T04:47:07.078Z,118.22
2023-03-26T04:48:07.130Z,119.85
2023-03-26T04:49:07.121Z,119.70
2023-03-26T04:50:07.131Z,123.17
2023-03-26T04:51:07.159Z,122.20
2023-03-26T04:52:07.165Z,118.04
2023-03-26T04:53:07.182Z,119.41
2023-03-26T04:54:07.210Z,119.29
2023-03-26T04:55:07.279Z,120.73
2023-03-26T04:56:07.251Z,120.73
2023-03-26T04:57:07.304Z,122.73
2023-03-26T04:58:07.285Z,120.88
2023-03-26T04:59:07.294Z,119.64
2023-03-26T05:00:07.317Z,118.08
2023-03-26T05:01:10.253Z,122.09
2023-03-26T05:03:07.395Z,122.25
2023-03-26T05:04:07.348Z,120.06
2023-03-26T05:05:07.315Z,123.48
2023-03-26T05:07:07.290Z,122.27
2023-03-26T05:08:07.288Z,121.60
2023-03-26T05:09:07.276Z,122.57
2023-03-26T05:10:07.276Z,123.91
2023-03-26T05:11:07.268Z,121.54
2023-03-26T05:12:07.320Z,122.42
2023-03-26T05:13:07.254Z,119.54
2023-03-26T05:15:07.247Z,123.53
2023-03-26T05:16:07.278Z,123.61
2023-03-26T05:17:07.222Z,120.05
2023-03-26T05:19:07.300Z,121.49
2023-03-26T05:20:07.202Z,120.54
2023-03-26T05:21:07.208Z,124.29
2023-03-26T05:23:07.171Z,122.98
2023-03-26T05:24:07.165Z,120.58
2023-03-26T05:25:07.159Z,121.06
2023-03-26T05:27:07.209Z,119.55
2023-03-26T05:28:07.133Z,118.30
2023-03-26T05:29:07.130Z,117.06
2023-03-26T05:30:07.181Z,118.81
2023-03-26T05:31:07.139Z,116.40
2023-03-26T05:32:07.112Z,119.57
2023-03-26T05:33:07.180Z,119.52
2023-03-26T05:35:07.092Z,118.74
2023-03-26T05:36:07.085Z,114.86
2023-03-26T05:37:07.080Z,113.74
2023-03-26T05:38:07.078Z,117.17
2023-03-26T05:39:07.067Z,114.38
2023-03-26T05:40:07.056Z,112.52
2023-03-26T05:41:07.046Z,113.02
2023-03-26T05:43:07.034Z,112.82
2023-03-26T05:44:07.019Z,112.70
2023-03-26T05:45:07.020Z,111.11
2023-03-26T05:46:07.026Z,108.34
2023-03-26T05:47:07.073Z,108.24
2023-03-26T05:48:07.038Z,108.16
2023-03-26T05:49:07.001Z,107.77
2023-03-26T05:51:06.984Z,107.38
2023-03-26T05:52:06.968Z,105.75
2023-03-26T05:53:06.962Z,105.10
2023-03-26T05:54:06.951Z,105.86
2023-03-26T05:55:06.946Z,102.87
2023-03-26T05:56:06.934Z,104.32
2023-03-26T05:57:06.976Z,104.80
2023-03-26T05:58:06.927Z,106.44
2023-03-26T05:59:06.922Z,105.44
2023-03-26T06:00:06.915Z,105.19
2023-03-26T06:01:06.905Z,108.41
2023-03-26T06:02:06.893Z,104.79
2023-03-26T06:03:06.989Z,105.93
2023-03-26T06:04:06.940Z,106.17
2023-03-26T06:05:06.869Z,104.83
2023-03-26T06:06:06.859Z,106.23
2023-03-26T06:07:06.857Z,107.29
2023-03-26T06:08:06.844Z,105.99
2023-03-26T06:09:06.848Z,108.86
2023-03-26T06:10:06.830Z,108.95
2023-03-26T06:11:06.850Z,107.66
2023-03-26T06:12:06.821Z,108.33
2023-03-26T06:13:06.827Z,111.57
2023-03-26T06:14:06.810Z,106.82
2023-03-26T06:15:06.798Z,107.68
2023-03-26T06:16:06.878Z,110.68
2023-03-26T06:17:06.838Z,109.78
2023-03-26T06:18:06.882Z,109.18
2023-03-26T06:19:06.936Z,110.64
2023-03-26T06:20:09.155Z,112.40
2023-03-26T06:21:06.992Z,111.88
2023-03-26T06:22:07.028Z,113.04
2023-03-26T06:23:07.038Z,111.12
2023-03-26T06:24:07.059Z,113.56
2023-03-26T06:25:07.081Z,113.58
2023-03-26T06:26:07.106Z,114.60
2023-03-26T06:27:07.131Z,114.07
2023-03-26T06:28:07.165Z,115.89
2023-03-26T06:29:07.176Z,114.89
2023-03-26T06:30:07.263Z,117.07
2023-03-26T06:31:07.240Z,115.50
2023-03-26T06:32:19.050Z,115.78
2023-03-26T06:33:08.254Z,115.98
2023-03-26T06:34:07.249Z,116.46
2023-03-26T06:35:07.228Z,116.57
2023-03-26T06:36:07.351Z,118.33
2023-03-26T06:37:07.229Z,121.06
2023-03-26T06:38:07.226Z,120.72
2023-03-26T06:39:07.667Z,120.34
2023-03-26T06:40:07.209Z,121.29
2023-03-26T06:41:07.197Z,119.29
2023-03-26T06:42:07.172Z,119.95
2023-03-26T06:43:10.665Z,116.90
2023-03-26T06:44:07.240Z,117.00
2023-03-26T06:45:07.171Z,117.43
2023-03-26T06:46:07.202Z,117.96
2023-03-26T06:47:07.142Z,118.73
2023-03-26T06:48:07.211Z,118.06
2023-03-26T06:49:07.141Z,117.68
2023-03-26T06:50:07.109Z,118.41
2023-03-26T06:51:07.116Z,119.49
2023-03-26T06:52:07.114Z,119.99
2023-03-26T06:53:07.100Z,119.19
2023-03-26T06:54:07.163Z,118.77
2023-03-26T06:55:07.091Z,117.46
2023-03-26T06:56:08.898Z,119.10
2023-03-26T06:57:07.106Z,119.22
2023-03-26T06:58:07.071Z,117.70
2023-03-26T06:59:07.068Z,119.31
2023-03-26T07:00:07.049Z,118.90
2023-03-26T07:01:07.095Z,118.47
2023-03-26T07:02:07.741Z,118.72
2023-03-26T07:03:07.245Z,118.28
2023-03-26T07:04:07.062Z,117.62
2023-03-26T07:05:07.039Z,119.62
2023-03-26T07:06:07.010Z,116.51
2023-03-26T07:07:07.014Z,115.36
2023-03-26T07:08:07.002Z,114.77
2023-03-26T07:09:07.011Z,112.48
2023-03-26T07:10:07.071Z,115.13
2023-03-26T07:11:06.994Z,113.99
2023-03-26T07:12:06.979Z,111.86
2023-03-26T07:13:06.976Z,113.32
2023-03-26T07:14:06.987Z,114.63
2023-03-26T07:15:06.953Z,113.50
2023-03-26T07:16:06.962Z,110.55
2023-03-26T07:17:07.740Z,110.56
2023-03-26T07:18:06.973Z,108.04
2023-03-26T07:19:07.252Z,109.78
2023-03-26T07:20:06.942Z,110.13
2023-03-26T07:21:06.931Z,110.12
2023-03-26T07:22:06.936Z,111.60
2023-03-26T07:23:07.081Z,110.40
2023-03-26T07:24:06.981Z,114.03
2023-03-26T07:25:06.964Z,112.95
2023-03-26T07:26:07.966Z,113.10
2023-03-26T07:27:06.959Z,113.51
2023-03-26T07:28:06.942Z,112.45
2023-03-26T07:29:06.948Z,113.12
2023-03-26T07:30:06.932Z,113.62
2023-03-26T07:31:06.921Z,115.19
2023-03-26T07:32:06.945Z,114.98
2023-03-26T07:33:06.985Z,115.91
2023-03-26T07:34:06.912Z,115.06
2023-03-26T07:35:06.908Z,116.02
2023-03-26T07:36:06.888Z,117.79
2023-03-26T07:37:06.969Z,117.41
2023-03-26T07:38:06.871Z,117.88
2023-03-26T07:39:06.949Z,118.07
2023-03-26T07:40:06.855Z,115.83
2023-03-26T07:41:06.854Z,116.56
2023-03-26T07:42:06.839Z,115.68
2023-03-26T07:43:06.860Z,118.20
2023-03-26T07:44:06.825Z,119.38
2023-03-26T07:45:06.821Z,120.51
2023-03-26T07:46:06.919Z,121.85
2023-03-26T07:47:06.907Z,121.02
2023-03-26T07:48:06.967Z,121.81
2023-03-26T07:49:07.750Z,123.30
2023-03-26T07:50:07.061Z,122.26
2023-03-26T07:51:07.119Z,121.37
2023-03-26T07:52:07.146Z,121.66
2023-03-26T07:53:07.201Z,123.68
2023-03-26T07:54:07.226Z,120.89
2023-03-26T07:55:07.272Z,122.92
2023-03-26T07:56:07.325Z,127.04
2023-03-26T07:57:07.437Z,122.52
2023-03-26T07:58:07.358Z,122.06
2023-03-26T07:59:07.432Z,124.37
2023-03-26T08:00:07.407Z,119.15
2023-03-26T08:01:07.410Z,124.04
2023-03-26T08:02:07.436Z,122.74
2023-03-26T08:03:07.550Z,127.60
2023-03-26T08:04:23.586Z,128.03
2023-03-26T08:05:08.523Z,128.10
2023-03-26T08:06:07.465Z,124.80
2023-03-26T08:07:07.456Z,128.20
2023-03-26T08:08:07.451Z,128.38
2023-03-26T08:09:07.440Z,126.92
2023-03-26T08:10:07.505Z,132.02
2023-03-26T08:11:07.437Z,130.07
2023-03-26T08:12:07.422Z,128.37
2023-03-26T08:13:07.412Z,128.31
2023-03-26T08:14:07.398Z,129.70
2023-03-26T08:15:07.397Z,130.33
2023-03-26T08:16:07.432Z,127.95
2023-03-26T08:17:07.394Z,129.71
2023-03-26T08:18:07.441Z,124.82
2023-03-26T08:19:07.389Z,130.91
2023-03-26T08:20:07.394Z,127.32
2023-03-26T08:21:07.366Z,126.95
2023-03-26T08:22:07.369Z,129.24
2023-03-26T08:23:07.351Z,129.28
2023-03-26T08:24:07.346Z,126.53
2023-03-26T08:25:07.342Z,126.56
2023-03-26T08:26:07.327Z,125.41
2023-03-26T08:27:07.321Z,127.15
2023-03-26T08:28:07.328Z,127.18
2023-03-26T08:29:07.315Z,129.87
2023-03-26T08:30:07.307Z,127.06
2023-03-26T08:31:07.416Z,127.91
2023-03-26T08:32:07.360Z,126.45
2023-03-26T08:33:07.429Z,128.05
2023-03-26T08:34:07.435Z,123.68
2023-03-26T08:35:07.475Z,127.20
2023-03-26T08:36:07.511Z,127.19
2023-03-26T08:37:07.565Z,126.18
2023-03-26T08:38:08.941Z,124.26
2023-03-26T08:39:07.640Z,123.68
2023-03-26T08:40:07.692Z,123.06
2023-03-26T08:41:07.737Z,124.62
2023-03-26T08:42:07.784Z,122.23
2023-03-26T08:43:07.824Z,122.23
2023-03-26T08:44:07.875Z,121.86
2023-03-26T08:45:07.976Z,122.03
2023-03-26T08:46:08.005Z,121.66
2023-03-26T08:47:08.032Z,121.29
2023-03-26T08:48:08.148Z,122.41
2023-03-26T08:49:08.141Z,121.90
2023-03-26T08:50:08.182Z,120.23
2023-03-26T08:51:08.252Z,118.40
2023-03-26T08:52:08.795Z,119.80
2023-03-26T08:53:08.354Z,119.76
2023-03-26T08:54:08.410Z,117.66
2023-03-26T08:55:08.478Z,116.85
2023-03-26T08:56:08.541Z,117.93
2023-03-26T08:57:08.652Z,119.94
2023-03-26T08:58:08.643Z,119.36
2023-03-26T08:59:08.691Z,118.47
2023-03-26T09:00:08.747Z,117.11
2023-03-26T09:01:08.792Z,117.68
2023-03-26T09:02:08.941Z,115.80
2023-03-26T09:03:09.008Z,116.43
2023-03-26T09:04:08.982Z,117.39
2023-03-26T09:05:08.987Z,113.97
2023-03-26T09:06:09.038Z,118.12
2023-03-26T09:07:09.079Z,120.21
2023-03-26T09:08:09.124Z,117.23
2023-03-26T09:09:09.172Z,117.61
2023-03-26T09:10:10.226Z,117.77
2023-03-26T09:11:09.167Z,117.66
2023-03-26T09:12:09.155Z,116.98
2023-03-26T09:13:09.152Z,115.82
2023-03-26T09:14:09.135Z,118.72
2023-03-26T09:15:09.215Z,115.22
2023-03-26T09:16:09.154Z,117.56
2023-03-26T09:17:09.131Z,111.86
2023-03-26T09:18:09.161Z,114.37
2023-03-26T09:19:09.097Z,118.66
2023-03-26T09:20:09.092Z,114.93
2023-03-26T09:21:09.080Z,119.66
2023-03-26T09:22:09.072Z,117.52
2023-03-26T09:23:09.066Z,114.54
2023-03-26T09:24:09.089Z,116.04
2023-03-26T09:25:09.074Z,113.45
2023-03-26T09:26:09.087Z,112.77
2023-03-26T09:27:09.120Z,117.88
2023-03-26T09:28:09.138Z,114.24
2023-03-26T09:29:09.182Z,117.48
2023-03-26T09:30:09.198Z,116.05
2023-03-26T09:31:09.231Z,114.89
2023-03-26T09:32:09.255Z,117.55
2023-03-26T09:33:09.278Z,115.42
2023-03-26T09:34:09.304Z,117.72
2023-03-26T09:35:10.716Z,118.55
2023-03-26T09:36:09.484Z,117.40
2023-03-26T09:37:09.458Z,118.20
2023-03-26T09:38:09.485Z,117.80
2023-03-26T09:39:09.526Z,119.03
2023-03-26T09:40:09.557Z,116.19
2023-03-26T09:41:09.595Z,119.42
2023-03-26T09:42:09.629Z,116.88
2023-03-26T09:43:09.657Z,115.88
2023-03-26T09:44:09.699Z,114.00
2023-03-26T09:45:09.752Z,119.11
2023-03-26T09:46:09.801Z,116.77
2023-03-26T09:47:09.812Z,118.52
2023-03-26T09:48:09.854Z,118.33
2023-03-26T09:49:09.897Z,118.46
2023-03-26T09:50:10.017Z,118.57
2023-03-26T09:51:09.994Z,116.91
2023-03-26T09:52:10.040Z,117.03
2023-03-26T09:53:10.147Z,117.01
2023-03-26T09:54:10.143Z,116.92
2023-03-26T09:55:10.197Z,115.01
2023-03-26T09:56:10.241Z,115.13
2023-03-26T09:57:10.293Z,115.44
2023-03-26T09:58:10.384Z,114.25
2023-03-26T09:59:10.584Z,115.72
2023-03-26T10:00:10.459Z,114.70
2023-03-26T10:01:10.566Z,114.22
2023-03-26T10:02:10.566Z,115.43
2023-03-26T10:03:10.695Z,113.80
2023-03-26T10:04:10.672Z,114.52
2023-03-26T10:05:10.856Z,114.57
2023-03-26T10:06:10.795Z,112.94
2023-03-26T10:07:10.853Z,114.37
2023-03-26T10:08:10.914Z,112.13
2023-03-26T10:09:10.962Z,114.95
2023-03-26T10:10:11.045Z,114.21
2023-03-26T10:11:11.091Z,113.59
2023-03-26T10:12:11.135Z,113.68
2023-03-26T10:13:14.985Z,114.41
2023-03-26T10:14:11.177Z,114.49
2023-03-26T10:15:11.180Z,114.55
2023-03-26T10:16:11.241Z,114.49
2023-03-26T10:17:11.216Z,113.17
2023-03-26T10:18:27.005Z,112.04
2023-03-26T10:19:12.148Z,114.51
2023-03-26T10:20:11.170Z,114.42
2023-03-26T10:21:11.135Z,114.39
2023-03-26T10:22:11.124Z,115.06
2023-03-26T10:23:11.127Z,113.79
2023-03-26T10:24:11.117Z,114.87
2023-03-26T10:25:11.113Z,111.72
2023-03-26T10:26:11.105Z,112.31
2023-03-26T10:27:11.161Z,113.67
2023-03-26T10:28:11.110Z,114.92
2023-03-26T10:29:11.174Z,114.55
2023-03-26T10:30:11.202Z,113.98
2023-03-26T10:31:11.358Z,115.92
2023-03-26T10:32:11.322Z,113.27
2023-03-26T10:33:11.392Z,113.87
2023-03-26T10:34:28.367Z,113.79
2023-03-26T10:35:12.417Z,113.89
2023-03-26T10:36:11.429Z,114.33
2023-03-26T10:37:11.409Z,115.10
2023-03-26T10:38:11.395Z,114.54
2023-03-26T10:39:11.397Z,114.40
2023-03-26T10:40:12.378Z,114.04
2023-03-26T10:41:11.374Z,114.84
2023-03-26T10:42:11.359Z,115.02
2023-03-26T10:43:12.471Z,116.75
2023-03-26T10:44:11.355Z,116.20
2023-03-26T10:45:11.350Z,113.29
2023-03-26T10:46:11.389Z,115.57
2023-03-26T10:47:11.336Z,116.57
2023-03-26T10:48:11.313Z,113.86
2023-03-26T10:49:11.323Z,116.22
2023-03-26T10:50:11.309Z,116.23
2023-03-26T10:51:11.301Z,116.54
2023-03-26T10:52:11.348Z,115.91
2023-03-26T10:53:11.392Z,115.51
2023-03-26T10:54:11.429Z,114.73
2023-03-26T10:55:11.457Z,115.45
2023-03-26T10:56:11.502Z,113.54
2023-03-26T10:57:11.599Z,116.30
2023-03-26T10:58:11.609Z,115.22
2023-03-26T10:59:11.670Z,116.57
2023-03-26T11:00:11.691Z,114.31
2023-03-26T11:01:11.775Z,113.67
2023-03-26T11:02:11.810Z,114.06
2023-03-26T11:03:11.913Z,116.65
2023-03-26T11:04:11.906Z,114.86
2023-03-26T11:05:11.957Z,115.30
2023-03-26T11:06:12.005Z,116.51
2023-03-26T11:07:12.904Z,115.84
2023-03-26T11:08:12.117Z,114.60
2023-03-26T11:09:12.174Z,110.72
2023-03-26T11:10:12.211Z,110.46
2023-03-26T11:11:12.269Z,108.39
2023-03-26T11:12:26.288Z,110.02
2023-03-26T11:13:13.317Z,110.08
2023-03-26T11:14:15.147Z,110.30
2023-03-26T11:15:13.310Z,110.23
2023-03-26T11:16:12.369Z,110.39
2023-03-26T11:17:14.970Z,110.43
2023-03-26T11:18:13.365Z,110.22
2023-03-26T11:19:12.290Z,110.27
2023-03-26T11:20:12.275Z,109.02
2023-03-26T11:21:18.945Z,109.05
2023-03-26T11:22:13.259Z,110.13
2023-03-26T11:23:12.259Z,110.08
2023-03-26T11:24:12.248Z,109.83
2023-03-26T11:25:12.253Z,109.49
2023-03-26T11:26:12.245Z,108.49
2023-03-26T11:27:16.054Z,108.21
2023-03-26T11:28:12.922Z,108.37
2023-03-26T11:29:31.508Z,108.36
2023-03-26T11:30:13.292Z,108.36
2023-03-26T11:31:12.220Z,108.45
2023-03-26T11:32:12.221Z,108.43
2023-03-26T11:33:12.184Z,109.78
2023-03-26T11:34:12.178Z,109.16
2023-03-26T11:35:12.213Z,108.25
2023-03-26T11:36:12.209Z,107.47
2023-03-26T11:37:12.160Z,106.76
2023-03-26T11:38:12.153Z,106.58
2023-03-26T11:39:12.177Z,102.09
2023-03-26T11:40:12.237Z,101.19
2023-03-26T11:41:12.288Z,101.96
2023-03-26T11:42:12.352Z,102.43
2023-03-26T11:43:12.385Z,104.23
2023-03-26T11:44:12.471Z,101.90
2023-03-26T11:45:12.461Z,102.78
2023-03-26T11:46:12.529Z,103.52
2023-03-26T11:47:12.542Z,100.44
2023-03-26T11:48:12.552Z,100.20
2023-03-26T11:49:12.602Z,100.67
2023-03-26T11:50:12.673Z,101.62
2023-03-26T11:51:12.673Z,98.54
2023-03-26T11:52:12.687Z,98.92
2023-03-26T11:53:12.770Z,96.86
2023-03-26T11:54:12.701Z,97.47
2023-03-26T11:55:12.725Z,97.73
2023-03-26T11:56:12.748Z,98.43
2023-03-26T11:57:13.396Z,99.41
2023-03-26T11:58:12.765Z,93.22
2023-03-26T11:59:12.776Z,93.78
2023-03-26T12:00:12.788Z,94.54
2023-03-26T12:01:12.790Z,93.38
2023-03-26T12:02:12.823Z,94.87
2023-03-26T12:04:12.827Z,92.94
2023-03-26T12:05:12.806Z,92.09
2023-03-26T12:06:12.816Z,95.93
2023-03-26T12:07:12.816Z,94.68
2023-03-26T12:08:12.813Z,94.60
2023-03-26T12:09:12.798Z,93.42
2023-03-26T12:10:18.368Z,91.11
2023-03-26T12:11:14.350Z,91.26
2023-03-26T12:12:12.853Z,91.63
2023-03-26T12:13:12.771Z,91.38
2023-03-26T12:14:12.777Z,91.24
2023-03-26T12:15:12.782Z,88.09
2023-03-26T12:16:12.797Z,89.23
2023-03-26T12:17:12.769Z,90.53
2023-03-26T12:18:12.823Z,85.75
2023-03-26T12:19:12.744Z,84.97
2023-03-26T12:20:13.349Z,87.96
2023-03-26T12:21:12.801Z,87.09
2023-03-26T12:22:12.723Z,84.72
2023-03-26T12:23:13.360Z,87.01
2023-03-26T12:24:12.729Z,83.03
2023-03-26T12:25:12.703Z,80.25
2023-03-26T12:26:12.705Z,77.01
2023-03-26T12:27:12.693Z,75.06
2023-03-26T12:28:12.693Z,76.51
2023-03-26T12:29:12.708Z,77.41
2023-03-26T12:30:12.675Z,73.30
2023-03-26T12:31:12.731Z,73.36
2023-03-26T12:32:12.665Z,73.48
2023-03-26T12:33:12.706Z,72.26
2023-03-26T12:34:12.662Z,73.68
2023-03-26T12:35:12.656Z,71.11
2023-03-26T12:36:12.659Z,71.91
2023-03-26T12:37:12.711Z,67.41
2023-03-26T12:38:12.706Z,69.19
2023-03-26T12:39:16.731Z,69.48
2023-03-26T12:40:16.158Z,69.64
2023-03-26T12:43:51.345Z,69.75
2023-03-26T12:44:42.157Z,69.66
2023-03-26T12:44:46.086Z,69.86
2023-03-26T12:44:48.504Z,70.01
2023-03-26T12:45:13.661Z,70.06
2023-03-26T12:47:55.448Z,70.93
2023-03-26T12:47:58.751Z,69.83
2023-03-26T12:48:13.737Z,69.81
2023-03-26T12:49:12.688Z,70.86
2023-03-26T12:50:12.632Z,71.24
2023-03-26T12:51:12.627Z,72.42
2023-03-26T12:52:12.622Z,66.37
2023-03-26T12:53:12.757Z,65.92
2023-03-26T12:54:12.616Z,62.18